Time;durP1;ratioP1;P1;durP2;ratioP2;P2;SDS_P1;SDS_P2;PMS_P1;PMS_P2;Temp;Humidity;BMP_temperature;BMP_pressure;BME280_temperature;BME280_humidity;BME280_pressure;Samples;Min_cycle;Max_cycle;Signal;HPM_P1;HPM_P2
2022/05/25 00:00:18;;;;;;;1.10;1.00;;;16.20;94.00;;;;;;5030584;28;20270;-67
2022/05/25 00:02:45;;;;;;;1.30;1.20;;;16.20;94.00;;;;;;5043300;28;20228;-66
2022/05/25 00:05:13;;;;;;;0.80;0.80;;;16.10;93.90;;;;;;5031333;28;20447;-67
2022/05/25 00:07:42;;;;;;;1.43;1.30;;;16.20;94.00;;;;;;5029310;28;20497;-68
2022/05/25 00:10:09;;;;;;;2.53;1.37;;;16.10;94.00;;;;;;5029070;28;20845;-68
2022/05/25 00:12:34;;;;;;;1.27;1.17;;;16.10;94.00;;;;;;5028305;28;20448;-67
2022/05/25 00:15:01;;;;;;;1.80;1.17;;;16.10;94.00;;;;;;5044968;28;21022;-68
2022/05/25 00:17:27;;;;;;;0.80;0.80;;;16.00;94.10;;;;;;5037011;28;20323;-67
2022/05/25 00:20:01;;;;;;;3.63;1.60;;;16.00;94.10;;;;;;5045473;28;20467;-68
2022/05/25 00:22:41;;;;;;;1.57;1.20;;;16.00;94.10;;;;;;5045213;28;20534;-67
2022/05/25 00:25:09;;;;;;;2.00;1.03;;;16.00;94.10;;;;;;5048339;28;20454;-68
2022/05/25 00:27:35;;;;;;;1.40;1.30;;;15.90;94.50;;;;;;5047556;28;20962;-67
2022/05/25 00:30:02;;;;;;;1.67;1.10;;;15.80;94.40;;;;;;5048227;28;20463;-66
2022/05/25 00:32:28;;;;;;;1.87;1.07;;;15.80;94.50;;;;;;5050278;28;20366;-68
2022/05/25 00:34:53;;;;;;;1.27;1.27;;;15.80;94.50;;;;;;5030984;28;20541;-68
2022/05/25 00:37:19;;;;;;;1.00;1.00;;;15.80;94.60;;;;;;5047078;28;20227;-68
2022/05/25 00:39:45;;;;;;;2.50;1.20;;;15.80;94.60;;;;;;5031679;28;20226;-69
2022/05/25 00:42:10;;;;;;;2.20;1.23;;;15.70;94.50;;;;;;5048411;28;20232;-68
2022/05/25 00:44:36;;;;;;;1.73;1.30;;;15.80;94.50;;;;;;5029276;28;20219;-67
2022/05/25 00:47:02;;;;;;;1.33;1.23;;;15.80;94.50;;;;;;5044829;28;20714;-68
2022/05/25 00:49:33;;;;;;;1.10;0.90;;;15.80;94.40;;;;;;5015302;28;20224;-68
2022/05/25 00:52:11;;;;;;;1.30;1.20;;;15.80;94.40;;;;;;5044547;28;20465;-69
2022/05/25 00:54:39;;;;;;;3.17;1.40;;;15.70;94.40;;;;;;5031959;28;20482;-68
2022/05/25 00:57:09;;;;;;;1.60;1.50;;;15.70;94.50;;;;;;5011701;28;20472;-72
2022/05/25 00:59:46;;;;;;;1.30;1.20;;;15.70;94.90;;;;;;5031728;28;20611;-68
2022/05/25 01:02:12;;;;;;;1.20;1.20;;;15.60;94.50;;;;;;5044821;28;20493;-68
2022/05/25 01:04:37;;;;;;;1.60;1.20;;;15.60;94.50;;;;;;5029246;28;20458;-70
2022/05/25 01:07:20;;;;;;;1.97;1.30;;;15.60;94.50;;;;;;5035789;28;20258;-68
2022/05/25 01:10:08;;;;;;;1.40;1.17;;;15.60;94.50;;;;;;5047731;28;20269;-68
2022/05/25 01:12:45;;;;;;;2.20;1.37;;;15.60;94.50;;;;;;5035416;28;20967;-67
2022/05/25 01:15:27;;;;;;;1.07;1.03;;;15.50;94.70;;;;;;5027957;28;20482;-68
2022/05/25 01:18:10;;;;;;;1.33;1.23;;;15.50;94.70;;;;;;5027566;28;20463;-67
2022/05/25 01:20:49;;;;;;;1.90;0.93;;;15.30;94.80;;;;;;5011799;28;20482;-68
2022/05/25 01:23:39;;;;;;;2.13;1.50;;;15.20;95.00;;;;;;5030451;28;20470;-67
2022/05/25 01:26:32;;;;;;;1.00;1.00;;;15.10;95.10;;;;;;5035565;28;20527;-66
2022/05/25 01:29:07;;;;;;;1.07;1.00;;;15.00;95.20;;;;;;5014977;28;20453;-69
2022/05/25 01:31:36;;;;;;;1.60;1.13;;;15.00;95.40;;;;;;5047020;28;20438;-67
2022/05/25 01:34:20;;;;;;;1.13;0.93;;;14.90;95.50;;;;;;5047193;28;20461;-67
2022/05/25 01:36:59;;;;;;;1.33;1.23;;;15.00;95.30;;;;;;5057540;28;20462;-67
2022/05/25 01:39:30;;;;;;;1.57;1.40;;;15.00;95.50;;;;;;5030509;28;20465;-68
2022/05/25 01:42:11;;;;;;;1.13;1.03;;;15.00;95.50;;;;;;5030836;28;20498;-68
2022/05/25 01:44:45;;;;;;;1.50;1.37;;;14.90;95.50;;;;;;5029590;28;20457;-68
2022/05/25 01:47:12;;;;;;;1.00;1.00;;;15.00;95.60;;;;;;5051143;28;20542;-68
2022/05/25 01:49:53;;;;;;;0.77;0.77;;;14.90;95.60;;;;;;5031906;28;20526;-68
2022/05/25 01:52:24;;;;;;;2.27;1.23;;;15.00;95.50;;;;;;5049621;28;20466;-68
2022/05/25 01:54:57;;;;;;;0.90;0.90;;;15.10;95.50;;;;;;5051125;28;20477;-68
2022/05/25 01:57:26;;;;;;;1.43;1.40;;;15.00;95.40;;;;;;5048567;28;20550;-68
2022/05/25 01:59:52;;;;;;;1.07;1.03;;;15.00;95.40;;;;;;5048140;28;20954;-68
2022/05/25 02:05:12;;;;;;;1.50;1.30;;;15.00;95.40;;;;;;5043374;28;20220;-69
2022/05/25 02:08:10;;;;;;;1.27;1.17;;;15.10;95.30;;;;;;5030449;28;21029;-68
2022/05/25 02:10:52;;;;;;;1.30;1.20;;;15.00;95.30;;;;;;5034383;28;20454;-68
2022/05/25 02:13:39;;;;;;;1.70;1.60;;;15.00;95.40;;;;;;5039168;28;20459;-70
2022/05/25 02:16:30;;;;;;;2.00;1.40;;;14.90;95.40;;;;;;5015020;28;20462;-68
2022/05/25 02:19:26;;;;;;;2.93;1.50;;;14.90;95.40;;;;;;5035306;28;20922;-68
2022/05/25 02:21:51;;;;;;;1.43;1.30;;;14.90;95.50;;;;;;5041565;28;20461;-67
2022/05/25 02:24:32;;;;;;;1.40;1.30;;;14.80;95.50;;;;;;5017718;28;20891;-67
2022/05/25 02:27:05;;;;;;;1.33;1.23;;;14.70;95.60;;;;;;5061711;28;20311;-68
2022/05/25 02:29:37;;;;;;;1.57;1.33;;;14.70;95.60;;;;;;5052138;28;20457;-67
2022/05/25 02:32:08;;;;;;;1.33;1.23;;;14.70;95.70;;;;;;5054542;28;20478;-68
2022/05/25 02:34:34;;;;;;;1.50;1.40;;;14.60;95.80;;;;;;5028176;28;20443;-68
2022/05/25 02:37:00;;;;;;;2.10;2.00;;;14.60;95.80;;;;;;5027014;28;20554;-67
2022/05/25 02:39:25;;;;;;;2.20;1.20;;;14.60;95.80;;;;;;5043577;28;20530;-67
2022/05/25 02:41:54;;;;;;;2.57;1.30;;;14.60;95.90;;;;;;5042827;28;20244;-68
2022/05/25 02:44:21;;;;;;;3.00;1.47;;;14.50;96.00;;;;;;5052425;28;20243;-67
2022/05/25 02:46:47;;;;;;;3.77;1.43;;;14.50;96.10;;;;;;5042898;28;20484;-68
2022/05/25 02:49:13;;;;;;;1.57;1.47;;;14.50;95.90;;;;;;5036518;28;20459;-67
2022/05/25 02:51:39;;;;;;;2.80;1.70;;;14.50;96.10;;;;;;5041768;28;20453;-70
2022/05/25 02:54:06;;;;;;;1.60;1.50;;;14.50;95.90;;;;;;5044776;28;20526;-68
2022/05/25 02:56:33;;;;;;;1.50;1.40;;;14.50;96.10;;;;;;5042709;28;20470;-67
2022/05/25 02:58:58;;;;;;;3.83;1.60;;;14.50;96.10;;;;;;5042746;28;20442;-66
2022/05/25 03:01:24;;;;;;;1.63;1.53;;;14.40;96.10;;;;;;5045263;28;20878;-68
2022/05/25 03:03:50;;;;;;;1.60;1.50;;;14.40;96.10;;;;;;5038227;28;20242;-69
2022/05/25 03:06:18;;;;;;;1.63;1.53;;;14.30;96.20;;;;;;5042211;28;20455;-69
2022/05/25 03:08:43;;;;;;;1.37;1.27;;;14.30;96.60;;;;;;5044710;28;20453;-67
2022/05/25 03:11:09;;;;;;;1.63;1.40;;;14.20;96.40;;;;;;5047408;28;20455;-67
2022/05/25 03:13:35;;;;;;;1.40;1.30;;;14.30;96.40;;;;;;5039477;28;20269;-67
2022/05/25 03:16:04;;;;;;;1.23;1.13;;;14.20;96.40;;;;;;5041248;28;20610;-67
2022/05/25 03:18:30;;;;;;;1.53;1.43;;;14.20;96.40;;;;;;5044893;28;20457;-67
2022/05/25 03:20:55;;;;;;;2.60;1.30;;;14.20;96.40;;;;;;5040685;28;20492;-68
2022/05/25 03:23:21;;;;;;;2.57;1.60;;;14.20;96.50;;;;;;5040958;28;20477;-69
2022/05/25 03:25:48;;;;;;;2.50;1.50;;;14.10;96.60;;;;;;5025072;28;20680;-68
2022/05/25 03:28:15;;;;;;;1.47;1.37;;;14.10;96.70;;;;;;5040595;28;20226;-68
2022/05/25 03:30:43;;;;;;;1.60;1.33;;;14.10;96.70;;;;;;5034890;28;20449;-67
2022/05/25 03:33:08;;;;;;;1.30;1.20;;;14.10;96.70;;;;;;5037958;28;20826;-68
2022/05/25 03:35:34;;;;;;;2.00;1.70;;;13.90;96.80;;;;;;5039533;28;20460;-68
2022/05/25 03:38:02;;;;;;;1.40;1.30;;;13.90;97.00;;;;;;5034472;28;20232;-68
2022/05/25 03:40:28;;;;;;;1.27;1.17;;;13.90;97.30;;;;;;5038266;28;20223;-69
2022/05/25 03:42:53;;;;;;;3.93;1.47;;;13.90;97.00;;;;;;5039951;28;20462;-67
2022/05/25 03:45:19;;;;;;;1.93;1.53;;;13.90;97.00;;;;;;5035369;28;20224;-66
2022/05/25 03:47:45;;;;;;;2.40;1.67;;;13.90;97.10;;;;;;5025630;28;20219;-67
2022/05/25 03:50:11;;;;;;;1.67;1.57;;;13.90;97.20;;;;;;5044768;28;20219;-66
2022/05/25 03:52:38;;;;;;;2.13;1.33;;;13.80;97.40;;;;;;5041199;28;20311;-66
2022/05/25 03:55:06;;;;;;;1.77;1.67;;;13.80;97.60;;;;;;5040169;28;20451;-66
2022/05/25 03:57:32;;;;;;;2.83;1.53;;;13.70;97.50;;;;;;5028159;28;20474;-65
2022/05/25 03:59:58;;;;;;;1.93;1.67;;;13.70;97.50;;;;;;5041639;28;20823;-68
2022/05/25 04:02:24;;;;;;;2.33;1.53;;;13.70;97.70;;;;;;5043644;28;20475;-65
2022/05/25 04:05:07;;;;;;;2.43;1.43;;;13.60;97.90;;;;;;5042008;28;20453;-65
2022/05/25 04:07:47;;;;;;;5.43;2.00;;;13.70;98.00;;;;;;5044189;28;20458;-67
2022/05/25 04:10:19;;;;;;;1.50;1.40;;;13.70;97.90;;;;;;5044114;28;20550;-65
2022/05/25 04:12:46;;;;;;;3.03;1.73;;;13.70;97.90;;;;;;5039047;28;20446;-68
2022/05/25 04:15:31;;;;;;;2.93;1.83;;;13.70;97.90;;;;;;5036959;28;20451;-68
2022/05/25 04:17:57;;;;;;;1.90;1.80;;;13.70;97.90;;;;;;5037545;28;20869;-67
2022/05/25 04:20:25;;;;;;;5.60;2.10;;;13.70;97.90;;;;;;5041987;28;20450;-67
2022/05/25 04:22:51;;;;;;;1.93;1.83;;;13.70;97.90;;;;;;5048519;28;20234;-68
2022/05/25 04:25:19;;;;;;;2.37;2.20;;;13.80;97.90;;;;;;5042028;28;20471;-68
2022/05/25 04:27:46;;;;;;;3.00;2.50;;;13.70;98.10;;;;;;5029454;28;20459;-67
2022/05/25 04:30:15;;;;;;;3.03;2.10;;;13.70;98.30;;;;;;5033874;28;20505;-67
2022/05/25 04:32:41;;;;;;;2.43;2.20;;;13.80;98.90;;;;;;5036139;28;20992;-68
2022/05/25 04:35:08;;;;;;;2.93;2.60;;;13.80;98.50;;;;;;5038591;28;20977;-67
2022/05/25 04:37:49;;;;;;;3.20;2.90;;;13.80;98.80;;;;;;5040110;28;20498;-67
2022/05/25 04:40:17;;;;;;;3.73;3.27;;;13.90;98.50;;;;;;5059310;28;20462;-68
2022/05/25 04:42:45;;;;;;;2.70;2.50;;;13.80;98.50;;;;;;5038660;28;20474;-68
2022/05/25 04:45:10;;;;;;;2.30;2.10;;;13.80;98.70;;;;;;5044709;28;20482;-70
2022/05/25 04:47:37;;;;;;;2.30;2.10;;;13.90;98.60;;;;;;5020753;28;20447;-68
2022/05/25 04:50:06;;;;;;;2.40;2.10;;;13.90;98.70;;;;;;5025050;28;20228;-68
2022/05/25 04:52:34;;;;;;;1.70;1.60;;;13.90;98.90;;;;;;5025967;28;20467;-68
2022/05/25 04:54:59;;;;;;;2.80;1.87;;;13.90;98.80;;;;;;5037804;28;20462;-67
2022/05/25 04:57:27;;;;;;;1.90;1.80;;;13.90;98.70;;;;;;5041657;28;21079;-68
2022/05/25 04:59:59;;;;;;;1.60;1.50;;;13.90;99.00;;;;;;5039656;28;20220;-68
2022/05/25 05:02:26;;;;;;;2.00;1.90;;;13.90;99.60;;;;;;5026329;28;20454;-67
2022/05/25 05:04:52;;;;;;;2.60;1.77;;;13.90;99.30;;;;;;5037021;28;20453;-67
2022/05/25 05:07:18;;;;;;;2.87;1.70;;;13.90;99.30;;;;;;5038021;28;20465;-68
2022/05/25 05:09:46;;;;;;;1.90;1.70;;;13.90;99.60;;;;;;5041517;28;20822;-68
2022/05/25 05:12:14;;;;;;;1.40;1.30;;;14.00;99.60;;;;;;5040248;28;20463;-68
2022/05/25 05:14:40;;;;;;;1.73;1.30;;;14.00;99.10;;;;;;5023110;28;20451;-67
2022/05/25 05:17:07;;;;;;;1.90;1.50;;;14.00;99.40;;;;;;5042616;28;20502;-68
2022/05/25 05:19:56;;;;;;;1.63;1.53;;;14.00;99.60;;;;;;5051809;28;20243;-68
2022/05/25 05:22:23;;;;;;;1.60;1.50;;;14.10;99.80;;;;;;5051046;28;20462;-68
2022/05/25 05:24:48;;;;;;;10.53;1.67;;;14.10;99.40;;;;;;5034850;28;20462;-68
2022/05/25 05:27:15;;;;;;;1.77;1.67;;;14.10;99.70;;;;;;5048239;28;20467;-68
2022/05/25 05:29:40;;;;;;;1.70;1.60;;;14.00;99.90;;;;;;5046276;28;20299;-71
2022/05/25 05:32:10;;;;;;;1.70;1.60;;;14.00;99.70;;;;;;5051452;28;20592;-68
2022/05/25 05:34:39;;;;;;;2.47;1.20;;;13.90;99.90;;;;;;5046843;28;20824;-68
2022/05/25 05:37:10;;;;;;;1.67;1.57;;;13.90;99.90;;;;;;5031901;28;20644;-68
2022/05/25 05:39:40;;;;;;;1.90;1.43;;;13.90;99.90;;;;;;5045711;28;20459;-68
2022/05/25 05:42:10;;;;;;;3.63;1.70;;;14.00;99.90;;;;;;5041042;28;20459;-69
2022/05/25 05:44:42;;;;;;;1.70;1.43;;;14.00;99.90;;;;;;5038611;28;20469;-69
2022/05/25 05:47:13;;;;;;;1.87;1.10;;;13.90;99.90;;;;;;5060973;28;20458;-68
2022/05/25 05:49:40;;;;;;;1.70;1.40;;;13.90;99.90;;;;;;5038645;28;20537;-69
2022/05/25 05:52:06;;;;;;;1.30;1.20;;;13.90;99.90;;;;;;5036152;28;20508;-68
2022/05/25 05:54:32;;;;;;;2.00;1.30;;;13.90;99.90;;;;;;5032757;28;20463;-68
2022/05/25 05:56:58;;;;;;;1.73;1.63;;;13.90;99.90;;;;;;5034441;28;20478;-67
2022/05/25 05:59:24;;;;;;;1.43;1.33;;;13.90;99.90;;;;;;5040945;28;20515;-67
2022/05/25 06:01:49;;;;;;;5.23;1.77;;;13.90;99.90;;;;;;5045539;28;20541;-68
2022/05/25 06:04:16;;;;;;;3.00;1.67;;;13.90;99.90;;;;;;5037791;28;20215;-69
2022/05/25 06:06:42;;;;;;;2.70;1.43;;;13.80;99.90;;;;;;5042418;28;20227;-68
2022/05/25 06:09:08;;;;;;;4.20;1.60;;;13.90;99.90;;;;;;5042312;28;21031;-67
2022/05/25 06:11:40;;;;;;;1.40;1.30;;;13.90;99.90;;;;;;5046476;28;20219;-69
2022/05/25 06:14:06;;;;;;;2.10;1.70;;;14.00;99.90;;;;;;5043544;28;20520;-68
2022/05/25 06:19:25;;;;;;;1.63;1.53;;;14.00;99.90;;;;;;5035503;28;20977;-68
2022/05/25 06:22:00;;;;;;;1.50;1.40;;;14.00;99.90;;;;;;5044088;28;20537;-68
2022/05/25 06:24:27;;;;;;;1.70;1.53;;;14.10;99.90;;;;;;5025435;28;20452;-67
2022/05/25 06:26:53;;;;;;;3.60;1.73;;;14.20;99.90;;;;;;5042463;28;20458;-68
2022/05/25 06:29:20;;;;;;;1.07;0.97;;;14.30;99.90;;;;;;5037777;28;20859;-68
2022/05/25 06:31:50;;;;;;;1.23;1.13;;;14.30;99.90;;;;;;5038640;28;20349;-70
2022/05/25 06:34:16;;;;;;;1.53;1.10;;;14.30;99.90;;;;;;5035872;28;20489;-69
2022/05/25 06:36:42;;;;;;;1.50;1.40;;;14.40;99.90;;;;;;5038675;28;20771;-71
2022/05/25 06:39:08;;;;;;;3.13;1.70;;;14.50;99.90;;;;;;5046720;28;20452;-69
2022/05/25 06:41:34;;;;;;;2.50;1.47;;;14.50;99.90;;;;;;5037197;28;20246;-68
2022/05/25 06:44:03;;;;;;;7.57;1.77;;;14.50;99.90;;;;;;5046776;28;20474;-68
2022/05/25 06:46:29;;;;;;;1.20;1.10;;;14.60;99.90;;;;;;5046089;28;20465;-69
2022/05/25 06:48:58;;;;;;;1.93;1.33;;;14.60;99.90;;;;;;5041142;28;20462;-70
2022/05/25 06:51:28;;;;;;;2.40;1.67;;;14.70;99.90;;;;;;5040485;28;20219;-69
2022/05/25 06:53:55;;;;;;;2.13;1.80;;;14.70;99.90;;;;;;5038592;28;20463;-68
2022/05/25 06:56:25;;;;;;;1.50;1.40;;;14.80;99.90;;;;;;5036277;28;20454;-68
2022/05/25 06:58:55;;;;;;;1.30;1.20;;;14.90;99.90;;;;;;5033783;28;20954;-68
2022/05/25 07:01:22;;;;;;;1.93;0.97;;;15.00;99.90;;;;;;5055650;28;20456;-68
2022/05/25 07:03:49;;;;;;;1.30;1.20;;;15.10;99.90;;;;;;5036590;28;20513;-68
2022/05/25 07:06:17;;;;;;;3.00;1.40;;;15.20;99.90;;;;;;5038342;28;20510;-68
2022/05/25 07:08:44;;;;;;;1.33;1.27;;;15.20;99.90;;;;;;5037483;28;20426;-68
2022/05/25 07:11:11;;;;;;;1.37;1.27;;;15.30;99.90;;;;;;5038227;28;21038;-69
2022/05/25 07:13:37;;;;;;;1.33;1.23;;;15.30;99.90;;;;;;5059562;28;20500;-68
2022/05/25 07:16:07;;;;;;;5.87;1.70;;;15.40;99.90;;;;;;5039108;28;20467;-69
2022/05/25 07:18:34;;;;;;;3.27;1.00;;;15.40;99.90;;;;;;5038345;28;20471;-70
2022/05/25 07:21:01;;;;;;;1.17;1.03;;;15.50;99.90;;;;;;5054287;28;20472;-67
2022/05/25 07:23:27;;;;;;;1.67;1.40;;;15.50;99.90;;;;;;5037957;28;20542;-69
2022/05/25 07:25:53;;;;;;;6.47;1.50;;;15.60;99.90;;;;;;5031544;28;20474;-68
2022/05/25 07:28:19;;;;;;;3.07;1.20;;;15.70;99.90;;;;;;5039372;28;20832;-68
2022/05/25 07:30:47;;;;;;;1.50;1.27;;;15.80;99.90;;;;;;5041105;28;20454;-68
2022/05/25 07:33:13;;;;;;;1.67;1.20;;;15.90;99.90;;;;;;5041505;28;20463;-68
2022/05/25 07:35:39;;;;;;;1.10;1.00;;;16.00;99.90;;;;;;5032057;28;20450;-71
2022/05/25 07:38:06;;;;;;;0.83;0.83;;;16.00;99.90;;;;;;5040020;28;20236;-69
2022/05/25 07:40:35;;;;;;;1.33;0.90;;;16.10;99.90;;;;;;5038103;28;20227;-68
2022/05/25 07:43:15;;;;;;;1.17;1.07;;;16.20;99.90;;;;;;5043814;28;20454;-68
2022/05/25 07:45:41;;;;;;;2.27;1.20;;;16.30;99.90;;;;;;5051825;28;20446;-69
2022/05/25 07:48:07;;;;;;;1.40;1.10;;;16.30;99.90;;;;;;5038178;28;20533;-69
2022/05/25 07:50:34;;;;;;;1.03;0.80;;;16.40;99.90;;;;;;5036828;28;20593;-69
2022/05/25 07:53:01;;;;;;;1.37;1.27;;;16.50;99.90;;;;;;5039035;28;20467;-68
2022/05/25 07:55:27;;;;;;;1.30;1.20;;;16.60;99.90;;;;;;5041013;28;20494;-67
2022/05/25 07:57:53;;;;;;;1.40;1.30;;;16.70;99.90;;;;;;5032866;28;20478;-68
2022/05/25 08:00:24;;;;;;;0.90;0.90;;;16.80;99.90;;;;;;5030596;28;20455;-68
2022/05/25 08:05:44;;;;;;;1.00;1.00;;;16.90;99.90;;;;;;5029024;28;20535;-69
2022/05/25 08:08:22;;;;;;;0.97;0.90;;;17.00;99.90;;;;;;5029614;28;20836;-68
2022/05/25 08:10:51;;;;;;;4.40;1.83;;;17.00;99.90;;;;;;5027148;28;20852;-70
2022/05/25 08:13:17;;;;;;;0.57;0.57;;;17.10;99.70;;;;;;5027703;28;20470;-68
2022/05/25 08:15:44;;;;;;;1.40;1.30;;;17.20;99.90;;;;;;5036002;28;20446;-66
2022/05/25 08:18:15;;;;;;;2.43;1.10;;;17.20;99.90;;;;;;5035125;28;20570;-69
2022/05/25 08:20:41;;;;;;;1.60;1.20;;;17.40;99.90;;;;;;5038917;28;20478;-68
2022/05/25 08:23:10;;;;;;;0.93;0.83;;;17.50;99.90;;;;;;5036177;28;21078;-69
2022/05/25 08:25:36;;;;;;;2.30;1.30;;;17.60;99.90;;;;;;5039486;28;20454;-67
2022/05/25 08:28:03;;;;;;;2.97;1.20;;;17.60;99.90;;;;;;5040337;28;20495;-69
2022/05/25 08:30:29;;;;;;;1.20;1.10;;;17.80;99.90;;;;;;5044493;28;20721;-70
2022/05/25 08:32:55;;;;;;;0.93;0.93;;;17.90;99.90;;;;;;5042097;28;20497;-69
2022/05/25 08:35:21;;;;;;;3.23;0.90;;;17.90;99.80;;;;;;5034728;28;20455;-70
2022/05/25 08:37:47;;;;;;;1.07;0.97;;;18.00;99.50;;;;;;5028700;28;20266;-69
2022/05/25 08:40:17;;;;;;;1.10;0.63;;;18.10;99.20;;;;;;5033137;28;20488;-69
2022/05/25 08:43:12;;;;;;;1.10;1.00;;;18.10;99.70;;;;;;5034566;28;20305;-68
2022/05/25 08:45:44;;;;;;;4.00;0.80;;;18.20;99.10;;;;;;5038988;28;20930;-69
2022/05/25 08:48:13;;;;;;;1.73;0.90;;;18.30;99.40;;;;;;5035570;28;20458;-69
2022/05/25 08:50:40;;;;;;;1.07;0.83;;;18.50;99.90;;;;;;5015069;28;20482;-67
2022/05/25 08:53:10;;;;;;;1.63;1.00;;;18.60;99.80;;;;;;5035717;28;20466;-69
2022/05/25 08:56:03;;;;;;;0.67;0.67;;;18.70;98.80;;;;;;5035246;28;20451;-68
2022/05/25 08:59:21;;;;;;;0.80;0.80;;;18.80;98.40;;;;;;5034287;28;20488;-68
2022/05/25 09:02:02;;;;;;;1.00;0.90;;;18.80;98.20;;;;;;5046420;28;20458;-68
2022/05/25 09:04:44;;;;;;;1.20;0.87;;;18.90;97.80;;;;;;5040248;28;20864;-70
2022/05/25 09:07:21;;;;;;;3.70;0.90;;;19.00;97.50;;;;;;5040910;28;20450;-68
2022/05/25 09:09:49;;;;;;;1.80;0.87;;;19.10;97.70;;;;;;5033904;28;20462;-68
2022/05/25 09:12:42;;;;;;;1.43;0.93;;;19.30;96.40;;;;;;5032598;28;20595;-68
2022/05/25 09:15:13;;;;;;;0.80;0.70;;;19.50;96.20;;;;;;5037500;28;20467;-69
2022/05/25 09:17:47;;;;;;;0.70;0.70;;;19.50;96.70;;;;;;5035734;28;20474;-68
2022/05/25 09:20:18;;;;;;;0.83;0.80;;;19.60;96.40;;;;;;5031025;28;20470;-69
2022/05/25 09:22:45;;;;;;;2.40;1.00;;;19.70;96.80;;;;;;5042105;28;20485;-71
2022/05/25 09:25:14;;;;;;;1.07;0.83;;;19.80;96.70;;;;;;5037390;28;20483;-70
2022/05/25 09:27:53;;;;;;;1.50;0.80;;;19.90;96.20;;;;;;5034799;28;20451;-72
2022/05/25 09:30:19;;;;;;;1.00;1.00;;;19.90;96.00;;;;;;5038650;28;20465;-71
2022/05/25 09:32:54;;;;;;;0.97;0.97;;;19.90;96.00;;;;;;5035814;28;20462;-70
2022/05/25 09:35:29;;;;;;;0.87;0.80;;;20.00;95.40;;;;;;5036005;28;20799;-70
2022/05/25 09:38:03;;;;;;;1.20;0.80;;;20.00;95.90;;;;;;5020045;28;20478;-69
2022/05/25 09:40:46;;;;;;;0.80;0.80;;;20.10;95.90;;;;;;5035259;28;20463;-68
2022/05/25 09:43:20;;;;;;;1.10;1.00;;;20.20;94.70;;;;;;5037987;28;20501;-70
2022/05/25 09:45:50;;;;;;;2.97;0.90;;;20.20;93.60;;;;;;5039497;28;20466;-68
2022/05/25 09:48:22;;;;;;;2.30;0.73;;;20.20;94.00;;;;;;5056082;28;20458;-68
2022/05/25 09:51:04;;;;;;;0.80;0.80;;;20.20;94.50;;;;;;5030240;28;20546;-71
2022/05/25 09:54:19;;;;;;;0.93;0.80;;;20.30;93.60;;;;;;5036231;28;21049;-71
2022/05/25 09:56:52;;;;;;;1.00;0.90;;;20.30;93.50;;;;;;5030669;28;20462;-68
2022/05/25 09:59:30;;;;;;;2.03;0.77;;;20.30;93.70;;;;;;5035153;28;20537;-72
2022/05/25 10:01:56;;;;;;;6.00;0.93;;;20.40;92.80;;;;;;5027843;28;20462;-70
2022/05/25 10:04:55;;;;;;;0.73;0.73;;;20.40;92.50;;;;;;5044590;28;20454;-70
2022/05/25 10:07:36;;;;;;;0.70;0.70;;;20.40;93.00;;;;;;5043102;28;20462;-70
2022/05/25 10:10:09;;;;;;;0.90;0.90;;;20.50;92.80;;;;;;5053700;28;20538;-71
2022/05/25 10:12:37;;;;;;;1.13;0.70;;;20.60;92.60;;;;;;5051769;28;20462;-71
2022/05/25 10:15:09;;;;;;;1.63;1.53;;;20.70;92.40;;;;;;5039769;28;20483;-71
2022/05/25 10:17:40;;;;;;;0.80;0.60;;;20.80;92.20;;;;;;5038666;28;20470;-71
2022/05/25 10:20:24;;;;;;;0.70;0.70;;;20.90;91.60;;;;;;5026970;28;20498;-72
2022/05/25 10:23:03;;;;;;;0.70;0.70;;;20.90;91.20;;;;;;5028974;28;20963;-71
2022/05/25 10:25:44;;;;;;;0.80;0.70;;;21.00;91.30;;;;;;5035927;28;20451;-71
2022/05/25 10:28:33;;;;;;;0.90;0.90;;;21.10;90.70;;;;;;5041250;28;20454;-72
2022/05/25 10:36:58;;;;;;;2.87;0.90;;;21.30;90.20;;;;;;5039314;28;20558;-72
2022/05/25 10:39:30;;;;;;;0.73;0.73;;;21.40;90.20;;;;;;5051429;28;20451;-71
2022/05/25 10:42:18;;;;;;;1.37;0.57;;;21.40;90.00;;;;;;5050499;28;20483;-71
2022/05/25 10:44:50;;;;;;;0.73;0.73;;;21.40;89.20;;;;;;5039869;28;20467;-70
2022/05/25 10:47:42;;;;;;;0.80;0.73;;;21.40;89.00;;;;;;5044994;28;20439;-71
2022/05/25 10:50:23;;;;;;;0.60;0.60;;;21.50;86.70;;;;;;5024304;28;20451;-72
2022/05/25 10:53:08;;;;;;;1.20;0.90;;;21.50;86.50;;;;;;5037672;28;20486;-70
2022/05/25 10:55:43;;;;;;;1.43;0.73;;;21.60;86.30;;;;;;5037288;28;20961;-71
2022/05/25 10:58:19;;;;;;;0.70;0.70;;;21.80;87.40;;;;;;5031243;28;20460;-70
2022/05/25 11:01:22;;;;;;;1.10;0.80;;;21.90;84.90;;;;;;5034659;28;20453;-71
2022/05/25 11:04:09;;;;;;;0.50;0.50;;;22.00;84.50;;;;;;5025465;28;20454;-70
2022/05/25 11:07:00;;;;;;;2.00;1.23;;;22.00;85.40;;;;;;5039751;28;20457;-71
2022/05/25 11:09:54;;;;;;;0.87;0.77;;;22.10;84.20;;;;;;5043890;28;20849;-70
2022/05/25 11:12:31;;;;;;;1.17;0.60;;;22.20;84.40;;;;;;5028267;28;20455;-71
2022/05/25 11:15:26;;;;;;;0.50;0.50;;;22.20;85.20;;;;;;5030369;28;20455;-71
2022/05/25 11:18:00;;;;;;;2.00;0.80;;;22.30;85.90;;;;;;5028910;28;21005;-70
2022/05/25 11:21:01;;;;;;;1.23;0.73;;;22.40;85.60;;;;;;5022154;28;20466;-72
2022/05/25 11:23:55;;;;;;;0.83;0.83;;;22.50;85.30;;;;;;5059126;28;21120;-71
2022/05/25 11:26:23;;;;;;;0.60;0.60;;;22.60;84.60;;;;;;5022112;28;20450;-71
2022/05/25 11:29:01;;;;;;;3.30;0.80;;;22.70;85.00;;;;;;5040969;28;20906;-69
2022/05/25 11:31:36;;;;;;;1.10;1.00;;;22.80;83.90;;;;;;5049881;28;20605;-71
2022/05/25 11:34:31;;;;;;;0.73;0.70;;;22.90;83.80;;;;;;5019117;28;20981;-71
2022/05/25 11:37:16;;;;;;;2.00;0.70;;;23.10;84.00;;;;;;5040608;28;21069;-70
2022/05/25 11:40:21;;;;;;;0.60;0.50;;;23.20;83.70;;;;;;5030403;28;20472;-70
2022/05/25 11:42:47;;;;;;;1.03;0.60;;;23.30;81.60;;;;;;5036095;28;21005;-72
2022/05/25 11:45:31;;;;;;;0.60;0.60;;;23.40;81.00;;;;;;5043178;28;20557;-73
2022/05/25 11:48:11;;;;;;;0.60;0.60;;;23.50;79.00;;;;;;5051851;28;20223;-72
2022/05/25 11:51:04;;;;;;;1.10;0.80;;;23.50;79.40;;;;;;5020660;28;20461;-72
2022/05/25 11:53:56;;;;;;;1.00;0.70;;;23.70;81.90;;;;;;5036549;28;20458;-70
2022/05/25 11:56:31;;;;;;;1.60;0.70;;;23.90;79.20;;;;;;5039898;28;20447;-71
2022/05/25 11:59:07;;;;;;;1.40;0.83;;;23.90;79.40;;;;;;5052298;28;20469;-73
2022/05/25 12:02:11;;;;;;;0.80;0.80;;;24.00;78.50;;;;;;5021536;28;20541;-72
2022/05/25 12:04:53;;;;;;;1.40;0.87;;;24.00;78.20;;;;;;5010888;28;20467;-70
2022/05/25 12:07:27;;;;;;;0.70;0.70;;;24.10;77.20;;;;;;5028555;28;20461;-72
2022/05/25 12:10:37;;;;;;;2.30;0.90;;;24.10;75.30;;;;;;5023814;28;20452;-71
2022/05/25 12:13:15;;;;;;;0.70;0.63;;;24.10;75.80;;;;;;5020566;28;20451;-71
2022/05/25 12:16:07;;;;;;;0.77;0.77;;;24.20;76.40;;;;;;5037343;28;20445;-73
2022/05/25 12:19:05;;;;;;;0.60;0.60;;;24.30;75.60;;;;;;5044003;28;20896;-70
2022/05/25 12:21:37;;;;;;;0.77;0.77;;;24.40;77.00;;;;;;5036937;28;20466;-70
2022/05/25 12:24:09;;;;;;;0.80;0.80;;;24.50;75.80;;;;;;5033450;28;20487;-69
2022/05/25 12:26:37;;;;;;;0.80;0.70;;;24.50;75.00;;;;;;5035772;28;20477;-70
2022/05/25 12:29:26;;;;;;;0.63;0.63;;;24.40;73.30;;;;;;5029865;28;20461;-71
2022/05/25 12:31:56;;;;;;;0.80;0.77;;;24.40;73.80;;;;;;5040449;28;20454;-70
2022/05/25 12:34:40;;;;;;;0.80;0.80;;;24.30;74.40;;;;;;5027801;28;20537;-69
2022/05/25 12:37:08;;;;;;;10.90;1.13;;;24.20;76.10;;;;;;5017419;28;21061;-69
2022/05/25 12:39:54;;;;;;;0.80;0.60;;;24.40;76.90;;;;;;5031312;28;20993;-70
2022/05/25 12:42:23;;;;;;;0.77;0.77;;;24.60;75.20;;;;;;5034595;28;20457;-68
2022/05/25 12:50:57;;;;;;;0.50;0.50;;;24.40;72.50;;;;;;5043739;28;20458;-69
2022/05/25 12:53:54;;;;;;;0.97;0.90;;;24.30;71.80;;;;;;5041552;28;20457;-71
2022/05/25 12:56:26;;;;;;;0.70;0.60;;;24.20;71.70;;;;;;5038306;28;20460;-71
2022/05/25 12:58:59;;;;;;;0.60;0.60;;;24.00;71.70;;;;;;5016199;28;20923;-70
2022/05/25 13:01:28;;;;;;;0.60;0.60;;;23.90;71.80;;;;;;5036655;28;20500;-70
2022/05/25 13:03:57;;;;;;;0.80;0.70;;;23.90;72.40;;;;;;5039059;28;20450;-70
2022/05/25 13:06:36;;;;;;;1.60;0.73;;;23.90;71.80;;;;;;5040682;28;20689;-73
2022/05/25 13:09:43;;;;;;;0.80;0.80;;;23.70;72.70;;;;;;5040709;28;20441;-69
2022/05/25 13:12:36;;;;;;;0.60;0.60;;;23.70;73.30;;;;;;5041345;28;20452;-69
2022/05/25 13:15:03;;;;;;;1.07;0.90;;;23.70;72.90;;;;;;5040146;28;20528;-71
2022/05/25 13:17:53;;;;;;;1.57;1.07;;;23.70;72.60;;;;;;5042268;28;21033;-69
2022/05/25 13:20:28;;;;;;;3.47;0.97;;;23.70;73.10;;;;;;5056172;28;20455;-68
2022/05/25 13:23:06;;;;;;;1.43;0.80;;;23.60;73.50;;;;;;5050474;28;20457;-68
2022/05/25 13:25:58;;;;;;;1.07;0.87;;;23.60;74.00;;;;;;5035261;28;20462;-69
2022/05/25 13:28:29;;;;;;;1.57;1.10;;;23.70;74.80;;;;;;5037264;28;20501;-69
2022/05/25 13:31:10;;;;;;;1.10;1.00;;;23.80;75.00;;;;;;5026982;28;20856;-69
2022/05/25 13:33:43;;;;;;;1.30;1.00;;;23.70;74.80;;;;;;5037177;28;20454;-72
2022/05/25 13:36:25;;;;;;;0.77;0.77;;;23.80;74.10;;;;;;5039992;28;20544;-71
2022/05/25 13:38:56;;;;;;;0.70;0.70;;;23.80;72.90;;;;;;5037016;28;20500;-72